createdAt,value
2023-01-18T00:00:41.745Z,98652.09
2023-01-18T00:03:13.538Z,98658.91
2023-01-18T00:05:42.149Z,98650.50
2023-01-18T00:08:19.510Z,98646.31
2023-01-18T00:10:46.374Z,98637.41
2023-01-18T00:13:13.001Z,98635.25
2023-01-18T00:15:39.549Z,98632.19
2023-01-18T00:18:06.159Z,98628.59
2023-01-18T00:20:32.706Z,98620.19
2023-01-18T00:23:01.620Z,98621.94
2023-01-18T00:25:29.352Z,98618.06
2023-01-18T00:27:56.611Z,98620.63
2023-01-18T00:30:25.886Z,98614.22
2023-01-18T00:32:58.434Z,98627.56
2023-01-18T00:35:26.176Z,98620.25
2023-01-18T00:37:53.967Z,98625.69
2023-01-18T00:40:23.698Z,98617.97
2023-01-18T00:43:08.776Z,98621.06
2023-01-18T00:45:35.416Z,98623.59
2023-01-18T00:48:02.756Z,98626.06
2023-01-18T00:50:29.603Z,98631.31
2023-01-18T00:52:59.068Z,98631.00
2023-01-18T00:55:26.756Z,98627.91
2023-01-18T00:57:53.189Z,98627.75
2023-01-18T01:00:24.189Z,98637.03
2023-01-18T01:02:51.623Z,98629.34
2023-01-18T01:05:39.220Z,98629.25
2023-01-18T01:08:06.028Z,98644.38
2023-01-18T01:10:34.242Z,98647.63
2023-01-18T01:13:19.647Z,98650.28
2023-01-18T01:16:04.763Z,98652.78
2023-01-18T01:18:52.871Z,98659.78
2023-01-18T01:21:38.155Z,98658.94
2023-01-18T01:24:23.998Z,98665.81
2023-01-18T01:26:50.592Z,98663.88
2023-01-18T01:29:17.479Z,98675.34
2023-01-18T01:31:44.458Z,98686.38
2023-01-18T01:34:10.917Z,98689.47
2023-01-18T01:36:37.449Z,98691.25
2023-01-18T01:39:04.120Z,98696.63
2023-01-18T01:41:43.473Z,98698.00
2023-01-18T01:44:24.590Z,98700.50
2023-01-18T01:46:59.106Z,98709.22
2023-01-18T01:49:42.601Z,98709.06
2023-01-18T01:52:12.156Z,98701.53
2023-01-18T01:54:44.773Z,98704.50
2023-01-18T01:57:21.998Z,98712.81
2023-01-18T01:59:57.881Z,98720.56
2023-01-18T02:02:24.361Z,98722.56
2023-01-18T02:04:53.996Z,98720.66
2023-01-18T02:07:22.009Z,98713.31
2023-01-18T02:09:49.672Z,98718.84
2023-01-18T02:12:16.617Z,98729.84
2023-01-18T02:14:43.157Z,98725.59
2023-01-18T02:17:34.272Z,98721.25
2023-01-18T02:20:06.744Z,98723.16
2023-01-18T02:22:48.619Z,98724.59
2023-01-18T02:25:42.317Z,98720.69
2023-01-18T02:28:17.279Z,98720.78
2023-01-18T02:30:53.608Z,98721.63
2023-01-18T02:33:26.318Z,98719.88
2023-01-18T02:35:57.561Z,98726.53
2023-01-18T02:38:28.039Z,98716.88
2023-01-18T02:41:12.901Z,98712.25
2023-01-18T02:44:00.686Z,98707.38
2023-01-18T02:46:35.992Z,98707.75
2023-01-18T02:49:06.900Z,98713.47
2023-01-18T02:51:33.856Z,98716.31
2023-01-18T02:54:06.134Z,98716.91
2023-01-18T02:56:33.628Z,98715.50
2023-01-18T02:59:10.129Z,98719.47
2023-01-18T03:02:08.520Z,98724.09
2023-01-18T03:04:54.333Z,98733.69
2023-01-18T03:07:34.836Z,98736.91
2023-01-18T03:10:04.667Z,98732.22
2023-01-18T03:12:57.332Z,98738.97
2023-01-18T03:15:52.006Z,98732.63
2023-01-18T03:18:31.575Z,98723.19
2023-01-18T03:20:58.337Z,98724.22
2023-01-18T03:23:39.885Z,98730.72
2023-01-18T03:26:12.152Z,98720.72
2023-01-18T03:29:00.048Z,98716.69
2023-01-18T03:32:07.178Z,98723.38
2023-01-18T03:35:03.841Z,98720.97
2023-01-18T03:37:38.451Z,98724.47
2023-01-18T03:40:09.312Z,98736.97
2023-01-18T03:42:44.772Z,98743.22
2023-01-18T03:45:29.417Z,98739.81
2023-01-18T03:47:55.959Z,98738.28
2023-01-18T03:50:37.136Z,98730.66
2023-01-18T03:53:09.296Z,98748.00
2023-01-18T03:55:48.803Z,98750.41
2023-01-18T03:58:22.540Z,98740.66
2023-01-18T04:00:52.270Z,98735.00
2023-01-18T04:03:18.691Z,98736.56
2023-01-18T04:05:45.374Z,98728.31
2023-01-18T04:08:11.893Z,98731.25
2023-01-18T04:10:38.290Z,98738.25
2023-01-18T04:13:04.699Z,98741.19
2023-01-18T04:15:31.138Z,98739.97
2023-01-18T04:17:57.500Z,98725.59
2023-01-18T04:20:23.959Z,98727.28
2023-01-18T04:22:54.504Z,98726.00
2023-01-18T04:25:21.632Z,98719.66
2023-01-18T04:27:48.176Z,98735.34
2023-01-18T04:30:14.952Z,98729.00
2023-01-18T04:32:42.786Z,98741.03
2023-01-18T04:35:09.930Z,98730.13
2023-01-18T04:37:38.337Z,98734.31
2023-01-18T04:40:06.136Z,98736.97
2023-01-18T04:42:32.680Z,98732.09
2023-01-18T04:44:59.911Z,98728.69
2023-01-18T04:47:29.084Z,98722.69
2023-01-18T04:49:59.529Z,98725.25
2023-01-18T04:52:27.023Z,98739.81
2023-01-18T04:54:54.106Z,98740.34
2023-01-18T04:57:20.882Z,98738.47
2023-01-18T04:59:47.265Z,98746.75
2023-01-18T05:02:21.232Z,98746.50
2023-01-18T05:04:47.795Z,98741.69
2023-01-18T05:07:14.176Z,98745.72
2023-01-18T05:09:40.606Z,98754.94
2023-01-18T05:12:07.407Z,98742.22
2023-01-18T05:14:33.836Z,98755.97
2023-01-18T05:17:00.234Z,98761.03
2023-01-18T05:19:30.443Z,98775.56
2023-01-18T05:21:57.023Z,98779.91
2023-01-18T05:24:23.418Z,98771.81
2023-01-18T05:26:49.926Z,98776.41
2023-01-18T05:29:16.380Z,98782.50
2023-01-18T05:31:42.874Z,98792.50
2023-01-18T05:34:09.452Z,98786.47
2023-01-18T05:36:36.924Z,98791.53
2023-01-18T05:39:03.353Z,98797.63
2023-01-18T05:41:29.723Z,98797.91
2023-01-18T05:43:56.120Z,98807.84
2023-01-18T05:46:22.621Z,98806.84
2023-01-18T05:48:49.046Z,98804.97
2023-01-18T05:51:15.408Z,98800.34
2023-01-18T05:53:42.067Z,98813.94
2023-01-18T05:56:09.602Z,98808.66
2023-01-18T05:58:36.243Z,98805.66
2023-01-18T06:01:02.808Z,98810.63
2023-01-18T06:03:29.264Z,98797.28
2023-01-18T06:05:55.750Z,98802.56
2023-01-18T06:08:22.225Z,98803.84
2023-01-18T06:10:53.380Z,98800.53
2023-01-18T06:13:21.289Z,98805.13
2023-01-18T06:15:49.660Z,98809.84
2023-01-18T06:18:16.206Z,98815.22
2023-01-18T06:20:42.666Z,98812.66
2023-01-18T06:23:09.164Z,98821.22
2023-01-18T06:25:35.668Z,98819.41
2023-01-18T06:28:02.659Z,98833.09
2023-01-18T06:30:29.157Z,98837.72
2023-01-18T06:32:55.576Z,98843.19
2023-01-18T06:35:22.154Z,98845.06
2023-01-18T06:37:48.736Z,98846.19
2023-01-18T06:40:15.354Z,98850.50
2023-01-18T06:42:41.905Z,98845.69
2023-01-18T06:45:09.000Z,98855.78
2023-01-18T06:47:35.384Z,98862.28
2023-01-18T06:50:01.910Z,98862.63
2023-01-18T06:52:28.408Z,98865.69
2023-01-18T06:54:54.795Z,98856.88
2023-01-18T06:57:21.213Z,98859.03
2023-01-18T06:59:47.633Z,98860.31
2023-01-18T07:02:16.561Z,98864.78
2023-01-18T07:04:45.271Z,98862.91
2023-01-18T07:07:12.750Z,98868.28
2023-01-18T07:09:39.252Z,98870.84
2023-01-18T07:12:06.125Z,98872.75
2023-01-18T07:14:33.291Z,98878.03
2023-01-18T07:17:03.536Z,98877.34
2023-01-18T07:19:30.022Z,98880.00
2023-01-18T07:21:56.477Z,98882.91
2023-01-18T07:24:23.953Z,98880.28
2023-01-18T07:26:50.748Z,98878.91
2023-01-18T07:29:17.650Z,98885.06
2023-01-18T07:31:44.079Z,98881.38
2023-01-18T07:34:10.940Z,98889.50
2023-01-18T07:36:39.225Z,98889.59
2023-01-18T07:39:06.494Z,98894.53
2023-01-18T07:41:32.947Z,98899.50
2023-01-18T07:43:59.407Z,98899.94
2023-01-18T07:46:26.212Z,98903.09
2023-01-18T07:48:53.129Z,98897.78
2023-01-18T07:51:24.063Z,98897.56
2023-01-18T07:53:55.199Z,98895.75
2023-01-18T07:56:22.879Z,98901.22
2023-01-18T07:58:49.460Z,98889.78
2023-01-18T08:01:19.103Z,98891.38
2023-01-18T08:03:47.923Z,98882.91
2023-01-18T08:06:18.247Z,98889.91
2023-01-18T08:08:44.737Z,98885.09
2023-01-18T08:11:12.052Z,98897.00
2023-01-18T08:13:38.920Z,98886.00
2023-01-18T08:16:07.675Z,98889.88
2023-01-18T08:18:34.240Z,98889.97
2023-01-18T08:21:00.770Z,98894.38
2023-01-18T08:23:27.362Z,98893.78
2023-01-18T08:25:55.353Z,98887.72
2023-01-18T08:28:22.217Z,98885.06
2023-01-18T08:30:49.124Z,98890.28
2023-01-18T08:33:15.612Z,98890.31
2023-01-18T08:35:47.207Z,98890.28
2023-01-18T08:38:15.461Z,98888.09
2023-01-18T08:40:42.444Z,98894.84
2023-01-18T08:43:11.721Z,98891.72
2023-01-18T08:45:38.400Z,98896.78
2023-01-18T08:48:10.452Z,98903.97
2023-01-18T08:50:39.010Z,98904.66
2023-01-18T08:53:05.578Z,98910.78
2023-01-18T08:55:33.952Z,98915.44
2023-01-18T08:58:00.576Z,98913.03
2023-01-18T09:00:31.199Z,98909.09
2023-01-18T09:02:58.514Z,98909.94
2023-01-18T09:05:26.929Z,98921.63
2023-01-18T09:07:54.402Z,98914.78
2023-01-18T09:10:22.163Z,98914.34
2023-01-18T09:12:49.081Z,98915.66
2023-01-18T09:15:16.029Z,98908.53
2023-01-18T09:17:42.573Z,98912.31
2023-01-18T09:20:11.916Z,98920.75
2023-01-18T09:22:39.425Z,98929.56
2023-01-18T09:25:06.608Z,98927.31
2023-01-18T09:27:33.564Z,98935.50
2023-01-18T09:30:00.199Z,98933.78
2023-01-18T09:32:27.393Z,98938.75
2023-01-18T09:34:54.812Z,98940.94
2023-01-18T09:37:21.794Z,98940.53
2023-01-18T09:39:52.260Z,98942.72
2023-01-18T09:42:25.192Z,98943.25
2023-01-18T09:44:59.026Z,98953.50
2023-01-18T09:47:30.698Z,98942.91
2023-01-18T09:49:59.371Z,98950.28
2023-01-18T09:53:03.294Z,98942.97
2023-01-18T09:55:39.305Z,98944.69
2023-01-18T09:58:20.403Z,98942.03
2023-01-18T10:00:49.399Z,98944.22
2023-01-18T10:03:23.322Z,98946.59
2023-01-18T10:06:10.223Z,98949.25
2023-01-18T10:08:53.263Z,98945.13
2023-01-18T10:11:28.200Z,98955.44
2023-01-18T10:14:03.165Z,98953.91
2023-01-18T10:16:32.572Z,98951.91
2023-01-18T10:18:59.219Z,98961.03
2023-01-18T10:21:55.484Z,98956.41
2023-01-18T10:24:41.405Z,98944.94
2023-01-18T10:27:47.699Z,98959.56
2023-01-18T10:30:45.664Z,98958.78
2023-01-18T10:33:25.431Z,98950.81
2023-01-18T10:35:56.927Z,98958.69
2023-01-18T10:38:28.594Z,98956.91
2023-01-18T10:41:00.399Z,98959.19
2023-01-18T10:43:28.988Z,98959.47
2023-01-18T10:45:56.095Z,98961.66
2023-01-18T10:48:28.927Z,98961.72
2023-01-18T10:51:06.004Z,98962.78
2023-01-18T10:53:35.228Z,98955.94
2023-01-18T10:56:12.609Z,98953.00
2023-01-18T10:58:45.280Z,98958.31
2023-01-18T11:01:25.755Z,98962.31
2023-01-18T11:04:08.733Z,98966.78
2023-01-18T11:06:53.775Z,98960.88
2023-01-18T11:09:48.434Z,98970.19
2023-01-18T11:12:34.441Z,98964.31
2023-01-18T11:15:16.129Z,98975.22
2023-01-18T11:17:56.148Z,98967.44
2023-01-18T11:20:25.616Z,98962.78
2023-01-18T11:23:04.721Z,98961.44
2023-01-18T11:25:55.980Z,98964.50
2023-01-18T11:28:39.795Z,98970.69
2023-01-18T11:31:13.685Z,98969.06
2023-01-18T11:33:52.801Z,98969.91
2023-01-18T11:36:32.907Z,98970.78
2023-01-18T11:39:28.362Z,98978.94
2023-01-18T11:42:24.811Z,98985.78
2023-01-18T11:45:13.143Z,98995.84
2023-01-18T11:47:42.286Z,98987.31
2023-01-18T11:50:30.590Z,98988.25
2023-01-18T11:53:07.268Z,98985.19
2023-01-18T11:55:40.962Z,98983.78
2023-01-18T11:58:27.578Z,98978.56
2023-01-18T12:01:23.297Z,98986.63
2023-01-18T12:04:08.683Z,98991.00
2023-01-18T12:07:12.582Z,99000.50
2023-01-18T12:09:55.704Z,99003.34
2023-01-18T12:13:07.013Z,98999.28
2023-01-18T12:16:15.167Z,99004.69
2023-01-18T12:18:58.850Z,99005.34
2023-01-18T12:21:28.116Z,99009.63
2023-01-18T12:24:13.150Z,99006.03
2023-01-18T12:27:04.828Z,99013.91
2023-01-18T12:30:11.726Z,99018.28
2023-01-18T12:32:45.787Z,99015.81
2023-01-18T12:35:25.029Z,99019.41
2023-01-18T12:38:13.696Z,99023.78
2023-01-18T12:40:42.961Z,99029.50
2023-01-18T12:43:37.830Z,99026.94
2023-01-18T12:46:11.041Z,99022.19
2023-01-18T12:48:57.944Z,99023.97
2023-01-18T12:51:27.999Z,99027.41
2023-01-18T12:54:45.772Z,99038.03
2023-01-18T12:57:15.080Z,99037.84
2023-01-18T13:00:06.243Z,99053.72
2023-01-18T13:02:40.131Z,99053.03
2023-01-18T13:05:20.307Z,99056.47
2023-01-18T13:07:59.204Z,99060.56
2023-01-18T13:10:28.108Z,99064.84
2023-01-18T13:12:57.481Z,99064.44
2023-01-18T13:15:27.148Z,99077.47
2023-01-18T13:18:24.217Z,99073.00
2023-01-18T13:21:10.086Z,99082.16
2023-01-18T13:23:54.059Z,99084.63
2023-01-18T13:26:33.870Z,99089.28
2023-01-18T13:29:16.697Z,99086.34
2023-01-18T13:31:44.364Z,99096.88
2023-01-18T13:34:26.757Z,99100.22
2023-01-18T13:37:02.503Z,99103.84
2023-01-18T13:39:47.144Z,99096.13
2023-01-18T13:42:25.815Z,99103.44
2023-01-18T13:45:17.316Z,99104.78
2023-01-18T13:47:49.838Z,99120.66
2023-01-18T13:50:40.365Z,99120.75
2023-01-18T13:53:15.880Z,99122.25
2023-01-18T13:56:25.770Z,99125.13
2023-01-18T13:58:58.137Z,99128.72
2023-01-18T14:01:32.785Z,99129.66
2023-01-18T14:04:21.736Z,99134.50
2023-01-18T14:06:49.708Z,99142.22
2023-01-18T14:09:18.584Z,99140.31
2023-01-18T14:11:57.042Z,99148.41
2023-01-18T14:14:27.649Z,99143.56
2023-01-18T14:16:59.177Z,99152.50
2023-01-18T14:19:28.292Z,99160.94
2023-01-18T14:22:30.265Z,99163.19
2023-01-18T14:25:07.796Z,99171.09
2023-01-18T14:27:46.927Z,99174.69
2023-01-18T14:30:33.023Z,99181.81
2023-01-18T14:33:13.883Z,99186.38
2023-01-18T14:35:51.798Z,99188.50
2023-01-18T14:38:19.136Z,99195.97
2023-01-18T14:40:52.602Z,99194.69
2023-01-18T14:43:34.789Z,99200.94
2023-01-18T14:46:08.450Z,99202.88
2023-01-18T14:48:46.195Z,99210.38
2023-01-18T14:51:18.270Z,99219.97
2023-01-18T14:53:52.826Z,99225.66
2023-01-18T14:56:24.951Z,99225.66
2023-01-18T14:58:52.841Z,99230.31
2023-01-18T15:01:37.147Z,99233.81
2023-01-18T15:04:07.251Z,99240.94
2023-01-18T15:06:44.463Z,99241.03
2023-01-18T15:09:12.709Z,99241.84
2023-01-18T15:11:41.324Z,99239.59
2023-01-18T15:14:15.392Z,99243.03
2023-01-18T15:16:42.393Z,99254.16
2023-01-18T15:19:17.565Z,99257.50
2023-01-18T15:21:45.881Z,99261.66
2023-01-18T15:24:21.029Z,99268.41
2023-01-18T15:26:55.998Z,99266.63
2023-01-18T15:29:26.311Z,99269.81
2023-01-18T15:32:04.498Z,99277.63
2023-01-18T15:34:37.275Z,99282.25
2023-01-18T15:37:07.819Z,99286.81
2023-01-18T15:39:34.244Z,99294.97
2023-01-18T15:42:08.751Z,99296.25
2023-01-18T15:44:51.302Z,99299.50
2023-01-18T15:47:38.080Z,99307.91
2023-01-18T15:50:15.027Z,99309.97
2023-01-18T15:52:45.080Z,99309.44
2023-01-18T15:55:30.903Z,99313.38
2023-01-18T15:58:01.406Z,99320.44
2023-01-18T16:00:33.469Z,99326.34
2023-01-18T16:03:00.056Z,99332.09
2023-01-18T16:05:26.905Z,99326.94
2023-01-18T16:08:17.541Z,99329.34
2023-01-18T16:10:50.174Z,99343.34
2023-01-18T16:13:27.007Z,99337.09
2023-01-18T16:16:15.297Z,99340.50
2023-01-18T16:18:47.361Z,99351.41
2023-01-18T16:21:22.496Z,99352.53
2023-01-18T16:23:51.178Z,99354.16
2023-01-18T16:26:23.040Z,99354.06
2023-01-18T16:28:51.431Z,99364.53
2023-01-18T16:31:22.784Z,99366.19
2023-01-18T16:33:49.529Z,99365.09
2023-01-18T16:36:18.881Z,99380.69
2023-01-18T16:38:46.134Z,99383.19
2023-01-18T16:41:14.677Z,99386.00
2023-01-18T16:43:43.039Z,99384.81
2023-01-18T16:46:11.919Z,99388.16
2023-01-18T16:48:38.452Z,99397.78
2023-01-18T16:51:13.258Z,99397.00
2023-01-18T16:53:39.800Z,99395.97
2023-01-18T16:56:06.451Z,99402.50
2023-01-18T16:58:34.265Z,99398.88
2023-01-18T17:01:05.989Z,99405.16
2023-01-18T17:03:34.294Z,99410.84
2023-01-18T17:06:00.744Z,99412.97
2023-01-18T17:08:27.427Z,99421.28
2023-01-18T17:10:56.865Z,99423.31
2023-01-18T17:13:23.895Z,99426.88
2023-01-18T17:15:53.097Z,99426.97
2023-01-18T17:18:23.923Z,99432.09
2023-01-18T17:20:50.572Z,99430.81
2023-01-18T17:23:17.586Z,99438.63
2023-01-18T17:25:44.761Z,99444.75
2023-01-18T17:28:14.060Z,99438.72
2023-01-18T17:30:42.585Z,99444.81
2023-01-18T17:33:17.093Z,99447.56
2023-01-18T17:35:43.798Z,99454.44
2023-01-18T17:38:21.957Z,99456.50
2023-01-18T17:40:49.238Z,99459.75
2023-01-18T17:43:32.263Z,99469.88
2023-01-18T17:46:03.457Z,99465.69
2023-01-18T17:48:30.085Z,99463.69
2023-01-18T17:50:56.677Z,99465.84
2023-01-18T17:53:23.187Z,99470.16
2023-01-18T17:55:49.898Z,99482.13
2023-01-18T17:58:19.719Z,99491.84
2023-01-18T18:00:46.445Z,99494.50
2023-01-18T18:03:13.281Z,99493.25
2023-01-18T18:05:40.013Z,99497.16
2023-01-18T18:08:07.713Z,99492.09
2023-01-18T18:10:34.704Z,99498.44
2023-01-18T18:13:01.733Z,99495.81
2023-01-18T18:15:31.346Z,99499.50
2023-01-18T18:17:57.734Z,99494.19
2023-01-18T18:20:24.732Z,99506.53
2023-01-18T18:22:51.209Z,99509.53
2023-01-18T18:25:18.096Z,99512.03
2023-01-18T18:27:46.529Z,99512.34
2023-01-18T18:30:14.166Z,99506.47
2023-01-18T18:32:40.718Z,99512.81
2023-01-18T18:35:19.455Z,99510.31
2023-01-18T18:37:50.864Z,99517.66
2023-01-18T18:40:17.851Z,99521.50
2023-01-18T18:42:52.739Z,99528.63
2023-01-18T18:45:27.096Z,99533.00
2023-01-18T18:47:53.510Z,99529.56
2023-01-18T18:50:19.965Z,99536.44
2023-01-18T18:52:46.479Z,99540.59
2023-01-18T18:55:13.132Z,99548.34
2023-01-18T18:57:39.628Z,99552.25
2023-01-18T19:00:07.454Z,99554.13
2023-01-18T19:02:37.660Z,99552.41
2023-01-18T19:05:06.766Z,99544.81
2023-01-18T19:07:36.669Z,99549.97
2023-01-18T19:10:04.984Z,99559.53
2023-01-18T19:12:31.948Z,99564.13
2023-01-18T19:14:58.805Z,99572.91
2023-01-18T19:17:30.860Z,99570.31
2023-01-18T19:19:58.064Z,99573.53
2023-01-18T19:22:25.063Z,99576.66
2023-01-18T19:24:51.487Z,99569.59
2023-01-18T19:27:17.878Z,99578.53
2023-01-18T19:29:44.254Z,99578.84
2023-01-18T19:32:10.759Z,99579.88
2023-01-18T19:34:38.393Z,99584.56
2023-01-18T19:37:05.186Z,99590.69
2023-01-18T19:39:34.559Z,99595.06
2023-01-18T19:42:01.843Z,99598.66
2023-01-18T19:44:28.529Z,99588.41
2023-01-18T19:46:56.708Z,99595.50
2023-01-18T19:49:26.145Z,99590.28
2023-01-18T19:51:54.429Z,99590.28
2023-01-18T19:54:23.346Z,99597.22
2023-01-18T19:56:51.281Z,99596.44
2023-01-18T19:59:17.848Z,99598.31
2023-01-18T20:01:44.676Z,99602.69
2023-01-18T20:04:16.543Z,99606.75
2023-01-18T20:06:45.096Z,99610.47
2023-01-18T20:09:19.375Z,99616.88
2023-01-18T20:11:49.614Z,99612.50
2023-01-18T20:14:19.575Z,99614.38
2023-01-18T20:16:46.765Z,99612.50
2023-01-18T20:19:17.519Z,99612.56
2023-01-18T20:21:44.179Z,99617.16
2023-01-18T20:24:10.683Z,99625.00
2023-01-18T20:26:40.796Z,99626.06
2023-01-18T20:29:08.355Z,99628.00
2023-01-18T20:31:39.515Z,99625.44
2023-01-18T20:34:06.703Z,99628.81
2023-01-18T20:36:34.891Z,99630.06
2023-01-18T20:39:02.179Z,99628.34
2023-01-18T20:41:29.055Z,99627.47
2023-01-18T20:43:55.529Z,99635.44
2023-01-18T20:46:22.431Z,99640.19
2023-01-18T20:48:49.579Z,99638.19
2023-01-18T20:51:17.794Z,99636.75
2023-01-18T20:53:44.194Z,99636.88
2023-01-18T20:56:27.814Z,99637.59
2023-01-18T20:58:55.239Z,99641.47
2023-01-18T21:01:21.821Z,99642.56
2023-01-18T21:03:55.184Z,99650.94
2023-01-18T21:06:21.660Z,99651.75
2023-01-18T21:08:48.108Z,99657.25
2023-01-18T21:11:18.451Z,99655.53
2023-01-18T21:13:44.910Z,99659.44
2023-01-18T21:16:11.912Z,99660.56
2023-01-18T21:18:39.409Z,99661.72
2023-01-18T21:21:06.347Z,99665.16
2023-01-18T21:23:39.345Z,99667.97
2023-01-18T21:26:09.318Z,99674.84
2023-01-18T21:28:36.599Z,99679.38
2023-01-18T21:31:04.185Z,99686.06
2023-01-18T21:33:31.557Z,99685.53
2023-01-18T21:36:04.428Z,99683.09
2023-01-18T21:38:31.391Z,99683.41
2023-01-18T21:41:20.882Z,99695.09
2023-01-18T21:44:06.893Z,99692.50
2023-01-18T21:46:33.503Z,99695.38
2023-01-18T21:49:06.879Z,99692.59
2023-01-18T21:51:52.241Z,99704.19
2023-01-18T21:54:19.663Z,99701.69
2023-01-18T21:56:47.200Z,99703.63
2023-01-18T21:59:14.442Z,99706.94
2023-01-18T22:01:44.008Z,99703.28
2023-01-18T22:04:31.239Z,99710.38
2023-01-18T22:06:59.343Z,99713.16
2023-01-18T22:09:27.710Z,99714.19
2023-01-18T22:11:58.342Z,99704.63
2023-01-18T22:14:25.594Z,99713.50
2023-01-18T22:16:52.202Z,99717.75
2023-01-18T22:19:21.561Z,99712.97
2023-01-18T22:21:49.510Z,99722.31
2023-01-18T22:24:20.357Z,99722.00
2023-01-18T22:26:50.496Z,99720.28
2023-01-18T22:29:17.238Z,99725.72
2023-01-18T22:31:43.627Z,99726.66
2023-01-18T22:34:17.738Z,99732.09
2023-01-18T22:36:44.253Z,99740.94
2023-01-18T22:39:12.056Z,99741.94
2023-01-18T22:41:39.409Z,99742.06
2023-01-18T22:44:06.107Z,99748.25
2023-01-18T22:46:32.616Z,99760.00
2023-01-18T22:49:01.862Z,99757.06
2023-01-18T22:51:28.531Z,99761.72
2023-01-18T22:53:56.399Z,99764.50
2023-01-18T22:56:24.887Z,99765.03
2023-01-18T22:58:52.258Z,99768.47
2023-01-18T23:01:28.350Z,99762.44
2023-01-18T23:03:57.508Z,99763.63
2023-01-18T23:06:24.252Z,99770.75
2023-01-18T23:08:51.284Z,99758.56
2023-01-18T23:11:24.255Z,99757.66
2023-01-18T23:14:13.760Z,99754.09
2023-01-18T23:17:00.879Z,99759.19
2023-01-18T23:19:30.979Z,99755.53
2023-01-18T23:21:58.182Z,99756.66
2023-01-18T23:24:25.623Z,99758.13
2023-01-18T23:26:52.802Z,99764.72
2023-01-18T23:29:20.013Z,99761.19
2023-01-18T23:31:50.282Z,99760.31
2023-01-18T23:34:22.897Z,99766.50
2023-01-18T23:36:51.599Z,99765.66
2023-01-18T23:39:37.435Z,99767.38
2023-01-18T23:42:23.036Z,99766.34
2023-01-18T23:45:08.693Z,99768.75
2023-01-18T23:47:57.497Z,99771.09
2023-01-18T23:50:43.311Z,99772.16
2023-01-18T23:53:32.311Z,99773.09
2023-01-18T23:56:00.167Z,99775.63
2023-01-18T23:58:32.871Z,99782.97
